createdAt,value
2018-08-25T00:01:30.627Z,31.93
2018-08-25T00:03:59.034Z,24.87
2018-08-25T00:06:27.502Z,24.80
2018-08-25T00:08:55.906Z,26.20
2018-08-25T00:11:24.326Z,29.03
2018-08-25T00:13:52.825Z,22.03
2018-08-25T00:16:21.349Z,28.70
2018-08-25T00:18:49.713Z,25.60
2018-08-25T00:21:18.136Z,27.23
2018-08-25T00:23:46.534Z,26.70
2018-08-25T00:26:15.668Z,28.53
2018-08-25T00:28:44.068Z,24.47
2018-08-25T00:31:17.608Z,26.97
2018-08-25T00:33:46.010Z,29.80
2018-08-25T00:36:14.436Z,22.33
2018-08-25T00:38:42.850Z,24.73
2018-08-25T00:41:11.310Z,25.47
2018-08-25T00:43:39.802Z,28.00
2018-08-25T00:46:08.342Z,23.70
2018-08-25T00:48:38.180Z,23.80
2018-08-25T00:51:06.689Z,33.33
2018-08-25T00:53:35.605Z,27.60
2018-08-25T00:56:04.133Z,27.93
2018-08-25T00:58:32.617Z,28.27
2018-08-25T01:01:01.459Z,24.07
2018-08-25T01:03:29.911Z,24.83
2018-08-25T01:05:58.315Z,22.90
2018-08-25T01:08:26.754Z,25.47
2018-08-25T01:10:55.191Z,24.73
2018-08-25T01:13:23.663Z,21.30
2018-08-25T01:15:52.095Z,24.67
2018-08-25T01:18:20.498Z,26.03
2018-08-25T01:20:49.589Z,27.43
2018-08-25T01:23:18.021Z,20.57
2018-08-25T01:25:46.509Z,32.03
2018-08-25T01:28:14.953Z,32.40
2018-08-25T01:30:43.425Z,27.90
2018-08-25T01:33:11.826Z,25.73
2018-08-25T01:35:40.245Z,31.33
2018-08-25T01:38:08.914Z,29.23
2018-08-25T01:40:37.419Z,25.37
2018-08-25T01:43:05.901Z,30.13
2018-08-25T01:45:34.326Z,27.60
2018-08-25T01:48:03.790Z,25.20
2018-08-25T01:50:32.222Z,25.10
2018-08-25T01:53:00.636Z,27.00
2018-08-25T01:55:29.058Z,25.90
2018-08-25T01:57:57.494Z,23.30
2018-08-25T02:00:25.868Z,26.73
2018-08-25T02:02:54.372Z,26.77
2018-08-25T02:05:22.729Z,28.27
2018-08-25T02:07:51.120Z,23.77
2018-08-25T02:10:19.505Z,24.17
2018-08-25T02:12:47.953Z,33.60
2018-08-25T02:15:16.361Z,28.07
2018-08-25T02:17:44.827Z,25.13
2018-08-25T02:20:13.209Z,26.83
2018-08-25T02:22:41.611Z,23.57
2018-08-25T02:25:10.019Z,26.73
2018-08-25T02:27:38.522Z,25.90
2018-08-25T02:30:06.969Z,20.40
2018-08-25T02:32:35.381Z,22.83
2018-08-25T02:35:03.905Z,25.83
2018-08-25T02:37:32.351Z,25.67
2018-08-25T02:40:00.769Z,23.87
2018-08-25T02:42:29.194Z,20.90
2018-08-25T02:44:57.617Z,39.30
2018-08-25T02:47:26.030Z,23.03
2018-08-25T02:49:54.457Z,27.07
2018-08-25T02:52:22.865Z,26.70
2018-08-25T02:54:51.309Z,24.97
2018-08-25T02:57:19.803Z,26.93
2018-08-25T02:59:48.265Z,29.43
2018-08-25T03:02:16.658Z,30.93
2018-08-25T03:04:47.703Z,26.30
2018-08-25T03:07:16.132Z,32.80
2018-08-25T03:09:44.546Z,21.43
2018-08-25T03:12:12.945Z,28.93
2018-08-25T03:14:41.371Z,26.20
2018-08-25T03:17:09.766Z,26.80
2018-08-25T03:19:38.162Z,28.33
2018-08-25T03:22:06.632Z,27.47
2018-08-25T03:24:35.068Z,27.37
2018-08-25T03:27:03.558Z,26.13
2018-08-25T03:29:31.970Z,29.83
2018-08-25T03:32:00.417Z,25.03
2018-08-25T03:34:28.875Z,23.97
2018-08-25T03:36:57.303Z,29.83
2018-08-25T03:39:25.721Z,27.93
2018-08-25T03:41:54.119Z,24.73
2018-08-25T03:44:22.542Z,31.70
2018-08-25T03:46:50.932Z,31.30
2018-08-25T03:49:19.404Z,28.80
2018-08-25T03:51:47.776Z,27.10
2018-08-25T03:54:16.180Z,29.17
2018-08-25T03:56:44.590Z,29.93
2018-08-25T03:59:13.038Z,27.47
2018-08-25T04:01:41.567Z,27.20
2018-08-25T04:04:09.895Z,30.33
2018-08-25T04:06:38.325Z,22.50
2018-08-25T04:09:11.746Z,24.03
2018-08-25T04:11:40.150Z,25.53
2018-08-25T04:14:09.738Z,27.20
2018-08-25T04:16:38.272Z,23.10
2018-08-25T04:19:07.124Z,28.60
2018-08-25T04:21:35.552Z,31.77
2018-08-25T04:24:03.945Z,31.87
2018-08-25T04:26:32.344Z,27.07
2018-08-25T04:29:00.756Z,29.10
2018-08-25T04:31:29.166Z,24.60
2018-08-25T04:33:57.605Z,26.30
2018-08-25T04:36:26.029Z,26.90
2018-08-25T04:38:54.442Z,30.30
2018-08-25T04:41:22.929Z,32.43
2018-08-25T04:43:51.295Z,30.80
2018-08-25T04:46:19.771Z,27.07
2018-08-25T04:48:48.204Z,30.27
2018-08-25T04:51:16.736Z,31.67
2018-08-25T04:53:45.464Z,30.33
2018-08-25T04:56:13.883Z,24.00
2018-08-25T04:58:42.362Z,25.33
2018-08-25T05:01:10.772Z,31.00
2018-08-25T05:03:39.343Z,28.17
2018-08-25T05:06:07.853Z,26.17
2018-08-25T05:08:36.226Z,28.23
2018-08-25T05:11:04.681Z,27.37
2018-08-25T05:13:33.179Z,26.50
2018-08-25T05:16:01.616Z,29.40
2018-08-25T05:18:29.998Z,19.93
2018-08-25T05:20:58.421Z,25.73
2018-08-25T05:23:26.838Z,25.70
2018-08-25T05:25:55.277Z,26.87
2018-08-25T05:28:23.721Z,23.97
2018-08-25T05:30:52.258Z,23.50
2018-08-25T05:33:20.736Z,22.87
2018-08-25T05:35:49.209Z,25.47
2018-08-25T05:38:17.601Z,23.40
2018-08-25T05:40:46.009Z,20.33
2018-08-25T05:43:14.437Z,22.77
2018-08-25T05:45:42.852Z,26.40
2018-08-25T05:48:11.253Z,22.13
2018-08-25T05:50:39.763Z,20.37
2018-08-25T05:53:08.235Z,22.67
2018-08-25T05:55:36.637Z,27.93
2018-08-25T05:58:05.128Z,29.43
2018-08-25T06:00:33.578Z,21.67
2018-08-25T06:03:02.050Z,21.80
2018-08-25T06:05:30.533Z,17.60
2018-08-25T06:07:58.957Z,18.77
2018-08-25T06:10:27.451Z,17.57
2018-08-25T06:12:55.854Z,17.80
2018-08-25T06:15:24.302Z,18.97
2018-08-25T06:17:53.582Z,18.13
2018-08-25T06:20:22.220Z,18.17
2018-08-25T06:22:50.981Z,19.57
2018-08-25T06:25:19.398Z,20.67
2018-08-25T06:27:47.818Z,17.17
2018-08-25T06:30:16.421Z,20.00
2018-08-25T06:32:44.722Z,15.17
2018-08-25T06:35:13.166Z,16.40
2018-08-25T06:37:41.608Z,16.77
2018-08-25T06:40:10.126Z,13.43
2018-08-25T06:42:38.545Z,16.63
2018-08-25T06:45:07.034Z,18.37
2018-08-25T06:47:35.415Z,18.93
2018-08-25T06:50:03.906Z,19.73
2018-08-25T06:52:32.324Z,22.93
2018-08-25T06:55:00.723Z,15.90
2018-08-25T06:57:29.111Z,19.80
2018-08-25T06:59:57.637Z,22.40
2018-08-25T07:02:26.038Z,15.73
2018-08-25T07:04:54.438Z,18.30
2018-08-25T07:07:22.854Z,19.73
2018-08-25T07:09:51.278Z,30.57
2018-08-25T07:12:19.687Z,14.87
2018-08-25T07:14:48.138Z,15.93
2018-08-25T07:17:16.569Z,17.10
2018-08-25T07:19:44.967Z,16.07
2018-08-25T07:22:13.420Z,22.33
2018-08-25T07:24:41.845Z,17.90
2018-08-25T07:27:10.294Z,17.80
2018-08-25T07:29:38.734Z,14.57
2018-08-25T07:32:07.188Z,14.87
2018-08-25T07:34:35.583Z,14.60
2018-08-25T07:37:04.036Z,17.40
2018-08-25T07:39:32.430Z,15.60
2018-08-25T07:42:00.836Z,13.60
2018-08-25T07:44:29.150Z,14.63
2018-08-25T07:46:57.554Z,17.13
2018-08-25T07:49:25.953Z,14.60
2018-08-25T07:51:54.400Z,18.60
2018-08-25T07:54:22.814Z,13.13
2018-08-25T07:56:51.370Z,17.13
2018-08-25T07:59:19.867Z,15.33
2018-08-25T08:01:48.254Z,23.23
2018-08-25T08:04:16.645Z,14.60
2018-08-25T08:06:45.065Z,12.27
2018-08-25T08:09:13.484Z,15.17
2018-08-25T08:11:41.987Z,12.80
2018-08-25T08:14:10.439Z,12.30
2018-08-25T08:16:38.852Z,14.00
2018-08-25T08:19:07.260Z,17.37
2018-08-25T08:21:35.699Z,14.83
2018-08-25T08:24:04.349Z,12.80
2018-08-25T08:26:32.710Z,15.30
2018-08-25T08:29:01.124Z,17.20
2018-08-25T08:31:29.487Z,13.13
2018-08-25T08:33:57.966Z,12.17
2018-08-25T08:36:26.384Z,9.80
2018-08-25T08:38:54.869Z,9.33
2018-08-25T08:41:23.278Z,12.63
2018-08-25T08:43:51.734Z,11.83
2018-08-25T08:46:25.594Z,12.67
2018-08-25T08:48:54.064Z,11.10
2018-08-25T08:51:22.458Z,9.87
2018-08-25T08:53:51.010Z,11.87
2018-08-25T08:56:19.520Z,12.83
2018-08-25T08:58:47.934Z,8.50
2018-08-25T09:01:16.350Z,8.97
2018-08-25T09:03:44.806Z,8.73
2018-08-25T09:06:13.258Z,11.07
2018-08-25T09:08:41.682Z,8.50
2018-08-25T09:11:10.118Z,10.73
2018-08-25T09:13:38.520Z,10.67
2018-08-25T09:16:06.992Z,12.30
2018-08-25T09:18:35.421Z,11.37
2018-08-25T09:21:03.863Z,14.93
2018-08-25T09:23:32.399Z,12.23
2018-08-25T09:26:00.846Z,9.80
2018-08-25T09:28:29.239Z,12.93
2018-08-25T09:30:57.653Z,14.23
2018-08-25T09:33:26.085Z,16.87
2018-08-25T09:35:54.639Z,8.90
2018-08-25T09:38:22.966Z,9.80
2018-08-25T09:40:51.403Z,12.20
2018-08-25T09:43:19.829Z,10.33
2018-08-25T09:45:48.219Z,13.53
2018-08-25T09:48:16.691Z,11.20
2018-08-25T09:50:45.095Z,9.43
2018-08-25T09:53:13.480Z,11.20
2018-08-25T09:55:41.890Z,12.13
2018-08-25T09:58:10.295Z,13.03
2018-08-25T10:00:38.722Z,10.60
2018-08-25T10:03:07.208Z,14.53
2018-08-25T10:05:35.611Z,10.93
2018-08-25T10:08:04.077Z,9.93
2018-08-25T10:10:32.492Z,10.27
2018-08-25T10:13:00.942Z,11.90
2018-08-25T10:15:29.444Z,18.43
2018-08-25T10:17:58.600Z,10.47
2018-08-25T10:20:27.002Z,10.03
2018-08-25T10:22:55.481Z,10.00
2018-08-25T10:25:23.853Z,10.53
2018-08-25T10:27:52.242Z,11.37
2018-08-25T10:30:20.650Z,13.13
2018-08-25T10:32:49.088Z,13.27
2018-08-25T10:35:17.513Z,8.47
2018-08-25T10:37:45.928Z,8.07
2018-08-25T10:40:14.351Z,11.30
2018-08-25T10:42:42.746Z,10.10
2018-08-25T10:45:11.192Z,10.53
2018-08-25T10:47:39.615Z,9.83
2018-08-25T10:50:08.050Z,16.20
2018-08-25T10:52:36.571Z,9.50
2018-08-25T10:55:05.112Z,6.87
2018-08-25T10:57:33.553Z,7.90
2018-08-25T11:00:02.007Z,7.33
2018-08-25T11:02:30.455Z,8.03
2018-08-25T11:04:58.895Z,9.13
2018-08-25T11:07:27.282Z,9.37
2018-08-25T11:09:55.718Z,7.97
2018-08-25T11:12:24.165Z,14.70
2018-08-25T11:14:52.659Z,9.30
2018-08-25T11:17:21.104Z,11.30
2018-08-25T11:19:49.498Z,8.70
2018-08-25T11:22:17.929Z,12.30
2018-08-25T11:24:46.423Z,11.37
2018-08-25T11:27:14.880Z,11.30
2018-08-25T11:29:43.375Z,9.03
2018-08-25T11:32:11.821Z,9.90
2018-08-25T11:34:40.255Z,11.37
2018-08-25T11:37:08.709Z,12.60
2018-08-25T11:39:37.245Z,10.63
2018-08-25T11:42:05.787Z,9.70
2018-08-25T11:44:34.209Z,15.80
2018-08-25T11:47:06.859Z,8.87
2018-08-25T11:49:35.387Z,11.27
2018-08-25T11:52:03.852Z,10.50
2018-08-25T11:54:32.270Z,13.00
2018-08-25T11:57:00.716Z,10.60
2018-08-25T11:59:29.141Z,17.73
2018-08-25T12:01:57.573Z,9.27
2018-08-25T12:04:26.063Z,14.97
2018-08-25T12:06:54.556Z,9.80
2018-08-25T12:09:23.118Z,11.83
2018-08-25T12:11:51.551Z,11.30
2018-08-25T12:14:20.037Z,8.97
2018-08-25T12:16:48.653Z,12.50
2018-08-25T12:19:17.136Z,12.80
2018-08-25T12:21:45.862Z,10.37
2018-08-25T12:24:14.385Z,9.10
2018-08-25T12:26:42.926Z,11.97
2018-08-25T12:29:11.370Z,7.10
2018-08-25T12:31:39.857Z,8.37
2018-08-25T12:34:08.349Z,8.30
2018-08-25T12:36:36.786Z,9.27
2018-08-25T12:39:08.412Z,13.83
2018-08-25T12:41:36.815Z,10.27
2018-08-25T12:44:05.337Z,8.93
2018-08-25T12:46:34.077Z,8.40
2018-08-25T12:49:02.742Z,9.63
2018-08-25T12:51:31.690Z,9.80
2018-08-25T12:54:00.674Z,8.47
2018-08-25T12:56:29.105Z,11.00
2018-08-25T12:58:57.563Z,8.37
2018-08-25T13:01:26.060Z,11.03
2018-08-25T13:03:54.518Z,9.17
2018-08-25T13:06:22.984Z,9.83
2018-08-25T13:08:51.437Z,19.03
2018-08-25T13:11:19.865Z,7.57
2018-08-25T13:13:48.351Z,9.50
2018-08-25T13:16:16.942Z,7.10
2018-08-25T13:18:45.403Z,9.13
2018-08-25T13:21:13.837Z,10.53
2018-08-25T13:23:42.308Z,12.50
2018-08-25T13:26:10.760Z,4.00
2018-08-25T13:28:39.268Z,8.17
2018-08-25T13:31:08.357Z,8.47
2018-08-25T13:33:36.772Z,9.03
2018-08-25T13:36:05.259Z,10.13
2018-08-25T13:38:33.723Z,5.20
2018-08-25T13:41:02.153Z,7.90
2018-08-25T13:43:30.605Z,7.40
2018-08-25T13:45:59.065Z,8.23
2018-08-25T13:48:27.508Z,11.03
2018-08-25T13:50:55.949Z,9.90
2018-08-25T13:53:24.629Z,8.83
2018-08-25T13:55:53.102Z,6.90
2018-08-25T13:58:21.788Z,8.40
2018-08-25T14:00:50.316Z,7.47
2018-08-25T14:03:20.109Z,6.60
2018-08-25T14:05:48.551Z,7.93
2018-08-25T14:08:17.112Z,10.13
2018-08-25T14:10:45.449Z,7.23
2018-08-25T14:13:13.896Z,10.67
2018-08-25T14:15:42.334Z,13.80
2018-08-25T14:18:10.839Z,12.43
2018-08-25T14:20:39.289Z,12.50
2018-08-25T14:23:07.878Z,13.43
2018-08-25T14:25:36.433Z,9.60
2018-08-25T14:28:05.279Z,12.33
2018-08-25T14:30:33.752Z,11.30
2018-08-25T14:33:02.234Z,8.90
2018-08-25T14:35:30.681Z,7.40
2018-08-25T14:37:59.145Z,10.00
2018-08-25T14:40:27.564Z,12.67
2018-08-25T14:42:56.066Z,11.20
2018-08-25T14:45:24.538Z,5.50
2018-08-25T14:47:53.010Z,7.77
2018-08-25T14:50:21.449Z,7.47
2018-08-25T14:52:49.914Z,12.00
2018-08-25T14:55:18.364Z,4.43
2018-08-25T14:57:46.817Z,5.13
2018-08-25T15:00:15.361Z,12.67
2018-08-25T15:02:43.808Z,14.40
2018-08-25T15:05:12.263Z,6.93
2018-08-25T15:07:40.864Z,17.77
2018-08-25T15:10:09.786Z,11.40
2018-08-25T15:12:37.968Z,18.47
2018-08-25T15:15:06.551Z,15.73
2018-08-25T15:17:35.042Z,19.23
2018-08-25T15:20:03.560Z,15.80
2018-08-25T15:22:32.075Z,27.63
2018-08-25T15:25:00.566Z,20.50
2018-08-25T15:27:29.045Z,14.37
2018-08-25T15:29:57.494Z,21.23
2018-08-25T15:32:25.943Z,20.00
2018-08-25T15:34:54.384Z,19.77
2018-08-25T15:37:22.857Z,14.93
2018-08-25T15:39:51.334Z,11.03
2018-08-25T15:42:19.828Z,10.70
2018-08-25T15:44:48.311Z,13.90
2018-08-25T15:47:16.756Z,11.70
2018-08-25T15:49:45.214Z,12.87
2018-08-25T15:52:13.771Z,10.97
2018-08-25T15:54:42.213Z,10.90
2018-08-25T15:57:10.683Z,17.00
2018-08-25T15:59:39.170Z,15.30
2018-08-25T16:02:07.599Z,15.13
2018-08-25T16:04:36.138Z,8.00
2018-08-25T16:07:05.076Z,16.53
2018-08-25T16:09:33.528Z,12.87
2018-08-25T16:12:02.091Z,18.43
2018-08-25T16:14:30.465Z,25.43
2018-08-25T16:16:58.936Z,12.60
2018-08-25T16:19:27.373Z,20.97
2018-08-25T16:21:55.884Z,20.40
2018-08-25T16:24:24.359Z,15.33
2018-08-25T16:26:52.902Z,16.70
2018-08-25T16:29:21.354Z,15.70
2018-08-25T16:31:49.852Z,18.53
2018-08-25T16:34:18.358Z,15.30
2018-08-25T16:36:47.170Z,23.00
2018-08-25T16:39:15.609Z,20.93
2018-08-25T16:41:45.138Z,26.33
2018-08-25T16:44:13.660Z,10.80
2018-08-25T16:46:42.191Z,8.63
2018-08-25T16:49:11.063Z,10.30
2018-08-25T16:51:39.554Z,9.77
2018-08-25T16:54:08.004Z,12.33
2018-08-25T16:56:36.469Z,11.00
2018-08-25T16:59:05.359Z,9.97
2018-08-25T17:01:33.820Z,8.93
2018-08-25T17:04:02.731Z,9.80
2018-08-25T17:06:30.897Z,11.37
2018-08-25T17:08:59.398Z,11.87
2018-08-25T17:11:27.967Z,6.20
2018-08-25T17:13:56.490Z,10.47
2018-08-25T17:16:24.952Z,9.33
2018-08-25T17:18:53.483Z,7.40
2018-08-25T17:21:22.969Z,10.93
2018-08-25T17:23:51.430Z,14.40
2018-08-25T17:26:20.778Z,12.57
2018-08-25T17:28:49.276Z,13.70
2018-08-25T17:31:17.923Z,11.90
2018-08-25T17:33:46.160Z,13.63
2018-08-25T17:36:15.035Z,8.33
2018-08-25T17:38:44.065Z,10.20
2018-08-25T17:41:12.551Z,8.90
2018-08-25T17:43:42.100Z,8.13
2018-08-25T17:46:11.356Z,8.97
2018-08-25T17:48:40.525Z,16.13
2018-08-25T17:51:09.148Z,9.20
2018-08-25T17:53:43.223Z,14.43
2018-08-25T17:56:11.933Z,9.50
2018-08-25T17:58:40.682Z,7.67
2018-08-25T18:01:09.379Z,16.03
2018-08-25T18:03:37.890Z,12.37
2018-08-25T18:06:06.429Z,10.20
2018-08-25T18:08:34.920Z,12.20
2018-08-25T18:11:03.216Z,10.70
2018-08-25T18:13:32.590Z,13.50
2018-08-25T18:16:01.111Z,8.70
2018-08-25T18:18:30.585Z,14.50
2018-08-25T18:21:00.101Z,10.20
2018-08-25T18:23:29.140Z,10.60
2018-08-25T18:25:58.566Z,11.97
2018-08-25T18:28:28.689Z,9.67
2018-08-25T18:30:59.503Z,12.73
2018-08-25T18:33:28.091Z,12.70
2018-08-25T18:35:57.507Z,14.00
2018-08-25T18:38:26.210Z,11.90
2018-08-25T18:40:55.835Z,18.07
2018-08-25T18:43:25.387Z,12.00
2018-08-25T18:45:53.942Z,11.80
2018-08-25T18:48:23.191Z,13.80
2018-08-25T18:50:52.425Z,13.77
2018-08-25T18:53:21.555Z,12.60
2018-08-25T18:55:50.454Z,18.47
2018-08-25T18:58:20.457Z,14.87
2018-08-25T19:00:50.151Z,16.57
2018-08-25T19:03:18.724Z,22.00
2018-08-25T19:05:47.363Z,15.50
2018-08-25T19:08:15.893Z,24.30
2018-08-25T19:10:44.901Z,12.10
2018-08-25T19:13:13.475Z,16.33
2018-08-25T19:15:42.573Z,21.23
2018-08-25T19:18:11.757Z,13.90
2018-08-25T19:20:41.262Z,16.77
2018-08-25T19:23:09.816Z,16.70
2018-08-25T19:25:38.479Z,17.47
2018-08-25T19:28:07.040Z,15.90
2018-08-25T19:30:36.539Z,13.30
2018-08-25T19:33:05.895Z,14.03
2018-08-25T19:35:34.451Z,14.10
2018-08-25T19:38:03.328Z,16.10
2018-08-25T19:40:31.820Z,14.20
2018-08-25T19:43:01.752Z,15.60
2018-08-25T19:45:30.302Z,13.70
2018-08-25T19:47:59.092Z,12.10
2018-08-25T19:50:28.568Z,15.10
2018-08-25T19:52:57.242Z,16.53
2018-08-25T19:55:30.278Z,16.17
2018-08-25T19:58:00.350Z,11.67
2018-08-25T20:00:29.070Z,12.67
2018-08-25T20:02:57.582Z,12.97
2018-08-25T20:05:26.987Z,15.90
2018-08-25T20:07:56.194Z,13.30
2018-08-25T20:10:25.234Z,16.33
2018-08-25T20:12:54.296Z,12.73
2018-08-25T20:15:22.819Z,15.93
2018-08-25T20:17:52.778Z,16.23
2018-08-25T20:20:21.464Z,15.77
2018-08-25T20:22:50.007Z,11.50
2018-08-25T20:25:18.289Z,17.70
2018-08-25T20:27:46.928Z,13.30
2018-08-25T20:30:16.107Z,14.97
2018-08-25T20:32:44.972Z,10.23
2018-08-25T20:35:13.561Z,11.07
2018-08-25T20:37:42.155Z,13.40
2018-08-25T20:40:11.044Z,10.07
2018-08-25T20:42:39.675Z,8.83
2018-08-25T20:45:08.815Z,10.90
2018-08-25T20:47:37.827Z,12.03
2018-08-25T20:50:06.654Z,11.60
2018-08-25T20:52:35.185Z,8.90
2018-08-25T20:55:03.689Z,16.50
2018-08-25T20:57:31.893Z,16.60
2018-08-25T21:00:01.431Z,13.50
2018-08-25T21:02:29.967Z,18.73
2018-08-25T21:04:58.490Z,9.97
2018-08-25T21:07:27.015Z,18.70
2018-08-25T21:09:55.434Z,13.17
2018-08-25T21:12:24.337Z,14.60
2018-08-25T21:14:52.919Z,13.37
2018-08-25T21:17:21.409Z,10.73
2018-08-25T21:19:49.862Z,22.93
2018-08-25T21:22:18.395Z,14.37
2018-08-25T21:24:47.390Z,14.47
2018-08-25T21:27:16.011Z,12.10
2018-08-25T21:29:44.562Z,10.33
2018-08-25T21:32:13.017Z,8.13
2018-08-25T21:34:41.490Z,16.13
2018-08-25T21:37:10.053Z,6.20
2018-08-25T21:39:38.592Z,12.37
2018-08-25T21:42:07.060Z,8.83
2018-08-25T21:44:35.642Z,7.47
2018-08-25T21:47:04.147Z,9.77
2018-08-25T21:49:32.693Z,143.90
2018-08-25T21:52:01.211Z,56.10
2018-08-25T21:54:29.767Z,12.40
2018-08-25T21:56:58.221Z,12.03
2018-08-25T21:59:26.946Z,11.10
2018-08-25T22:01:57.360Z,13.37
2018-08-25T22:04:26.484Z,13.50
2018-08-25T22:06:55.265Z,13.13
2018-08-25T22:09:23.685Z,13.00
2018-08-25T22:11:52.287Z,11.20
2018-08-25T22:14:20.759Z,10.87
2018-08-25T22:16:49.593Z,15.10
2018-08-25T22:19:18.083Z,8.97
2018-08-25T22:21:46.499Z,10.37
2018-08-25T22:24:15.395Z,13.00
2018-08-25T22:26:44.192Z,7.90
2018-08-25T22:29:12.692Z,8.57
2018-08-25T22:31:41.097Z,6.57
2018-08-25T22:34:09.510Z,7.77
2018-08-25T22:36:37.899Z,10.63
2018-08-25T22:39:08.429Z,10.60
2018-08-25T22:41:37.248Z,6.63
2018-08-25T22:44:06.104Z,5.80
2018-08-25T22:46:34.520Z,4.40
2018-08-25T22:49:02.980Z,5.57
2018-08-25T22:51:31.410Z,8.77
2018-08-25T22:53:59.858Z,8.83
2018-08-25T22:56:28.324Z,4.70
2018-08-25T22:58:56.769Z,6.00
2018-08-25T23:01:25.225Z,6.50
2018-08-25T23:03:53.632Z,4.73
2018-08-25T23:06:22.114Z,4.00
2018-08-25T23:08:50.294Z,4.70
2018-08-25T23:11:18.742Z,4.27
2018-08-25T23:13:47.284Z,8.47
2018-08-25T23:16:15.670Z,3.63
2018-08-25T23:18:44.700Z,8.83
2018-08-25T23:21:13.124Z,4.30
2018-08-25T23:23:41.622Z,4.27
2018-08-25T23:26:10.032Z,4.03
2018-08-25T23:28:38.522Z,5.80
2018-08-25T23:31:06.991Z,4.10
2018-08-25T23:33:35.404Z,5.17
2018-08-25T23:36:03.788Z,4.10
2018-08-25T23:38:32.214Z,4.67
2018-08-25T23:41:00.636Z,2.60
2018-08-25T23:43:29.036Z,2.47
2018-08-25T23:45:57.447Z,2.60
2018-08-25T23:48:25.852Z,3.10
2018-08-25T23:50:54.246Z,2.57
2018-08-25T23:53:22.618Z,3.27
2018-08-25T23:55:51.148Z,2.80
2018-08-25T23:58:19.585Z,2.60
